createdAt,value
2022-09-13T00:00:38.675Z,84.06
2022-09-13T00:03:05.309Z,84.04
2022-09-13T00:05:31.868Z,84.43
2022-09-13T00:07:58.447Z,84.46
2022-09-13T00:10:25.266Z,84.10
2022-09-13T00:12:51.892Z,84.65
2022-09-13T00:15:18.651Z,84.38
2022-09-13T00:17:45.282Z,84.32
2022-09-13T00:20:11.879Z,84.76
2022-09-13T00:22:38.515Z,84.52
2022-09-13T00:25:05.817Z,84.69
2022-09-13T00:27:33.414Z,84.59
2022-09-13T00:30:00.117Z,84.40
2022-09-13T00:32:26.928Z,84.76
2022-09-13T00:34:53.508Z,84.56
2022-09-13T00:37:20.131Z,84.51
2022-09-13T00:39:49.803Z,84.41
2022-09-13T00:42:16.782Z,84.74
2022-09-13T00:45:07.730Z,84.18
2022-09-13T00:47:40.606Z,84.17
2022-09-13T00:50:33.557Z,84.26
2022-09-13T00:53:11.626Z,84.46
2022-09-13T00:55:46.602Z,84.76
2022-09-13T00:58:13.819Z,84.81
2022-09-13T01:00:40.581Z,84.95
2022-09-13T01:03:08.275Z,85.26
2022-09-13T01:05:43.077Z,85.66
2022-09-13T01:08:12.767Z,85.85
2022-09-13T01:10:41.797Z,86.06
2022-09-13T01:13:18.184Z,86.49
2022-09-13T01:15:44.907Z,86.87
2022-09-13T01:18:11.572Z,86.89
2022-09-13T01:20:57.360Z,87.29
2022-09-13T01:24:10.218Z,88.03
2022-09-13T01:26:52.761Z,88.01
2022-09-13T01:29:41.156Z,87.93
2022-09-13T01:32:11.893Z,88.24
2022-09-13T01:34:57.030Z,88.54
2022-09-13T01:37:44.815Z,89.05
2022-09-13T01:40:57.547Z,89.02
2022-09-13T01:43:36.094Z,89.35
2022-09-13T01:46:06.878Z,89.30
2022-09-13T01:49:13.224Z,89.61
2022-09-13T01:51:43.015Z,89.89
2022-09-13T01:54:18.040Z,90.22
2022-09-13T01:56:59.658Z,90.74
2022-09-13T01:59:49.432Z,90.33
2022-09-13T02:02:23.861Z,91.09
2022-09-13T02:04:54.166Z,90.69
2022-09-13T02:07:24.476Z,91.39
2022-09-13T02:10:05.054Z,90.80
2022-09-13T02:12:32.022Z,90.63
2022-09-13T02:15:08.947Z,90.70
2022-09-13T02:17:39.638Z,91.01
2022-09-13T02:20:09.322Z,90.63
2022-09-13T02:22:39.050Z,90.74
2022-09-13T02:25:09.349Z,90.13
2022-09-13T02:27:36.116Z,90.04
2022-09-13T02:30:07.943Z,89.47
2022-09-13T02:32:42.989Z,89.81
2022-09-13T02:35:14.903Z,89.72
2022-09-13T02:37:42.468Z,89.44
2022-09-13T02:40:12.994Z,89.75
2022-09-13T02:42:43.790Z,89.71
2022-09-13T02:45:10.835Z,90.22
2022-09-13T02:47:49.553Z,90.03
2022-09-13T02:50:34.299Z,90.21
2022-09-13T02:53:15.227Z,89.89
2022-09-13T02:55:53.922Z,89.97
2022-09-13T02:58:27.301Z,89.45
2022-09-13T03:00:54.173Z,89.37
2022-09-13T03:03:20.981Z,89.67
2022-09-13T03:05:49.681Z,89.54
2022-09-13T03:08:16.789Z,89.73
2022-09-13T03:11:09.190Z,90.06
2022-09-13T03:13:46.820Z,89.64
2022-09-13T03:16:23.504Z,90.41
2022-09-13T03:19:32.151Z,90.23
2022-09-13T03:22:14.071Z,90.68
2022-09-13T03:24:50.533Z,89.99
2022-09-13T03:27:29.269Z,90.72
2022-09-13T03:30:09.219Z,90.42
2022-09-13T03:32:44.816Z,90.93
2022-09-13T03:35:18.760Z,90.49
2022-09-13T03:37:57.280Z,90.84
2022-09-13T03:40:32.995Z,90.61
2022-09-13T03:43:08.355Z,90.69
2022-09-13T03:45:37.241Z,90.33
2022-09-13T03:48:04.149Z,90.49
2022-09-13T03:50:30.734Z,90.39
2022-09-13T03:53:02.876Z,90.04
2022-09-13T03:55:30.330Z,89.85
2022-09-13T03:57:56.912Z,90.25
2022-09-13T04:00:23.935Z,89.93
2022-09-13T04:02:50.951Z,89.91
2022-09-13T04:05:17.940Z,89.63
2022-09-13T04:07:44.606Z,89.80
2022-09-13T04:10:13.775Z,89.27
2022-09-13T04:12:41.397Z,89.19
2022-09-13T04:15:08.908Z,89.34
2022-09-13T04:17:36.336Z,89.46
2022-09-13T04:20:03.295Z,89.41
2022-09-13T04:22:29.849Z,89.22
2022-09-13T04:25:01.508Z,89.24
2022-09-13T04:27:29.014Z,88.95
2022-09-13T04:29:55.607Z,89.18
2022-09-13T04:32:22.257Z,88.56
2022-09-13T04:34:49.056Z,88.91
2022-09-13T04:37:15.687Z,88.37
2022-09-13T04:39:42.717Z,88.34
2022-09-13T04:42:10.362Z,88.19
2022-09-13T04:44:36.953Z,88.37
2022-09-13T04:47:03.840Z,87.92
2022-09-13T04:49:30.390Z,87.76
2022-09-13T04:51:57.391Z,88.04
2022-09-13T04:54:24.397Z,88.21
2022-09-13T04:56:50.962Z,88.15
2022-09-13T04:59:17.927Z,88.51
2022-09-13T05:01:44.783Z,88.16
2022-09-13T05:04:11.458Z,88.37
2022-09-13T05:06:38.319Z,88.57
2022-09-13T05:09:05.534Z,88.42
2022-09-13T05:11:32.112Z,88.16
2022-09-13T05:13:59.964Z,88.29
2022-09-13T05:16:30.616Z,87.94
2022-09-13T05:18:57.386Z,88.32
2022-09-13T05:21:24.265Z,88.07
2022-09-13T05:23:54.564Z,87.82
2022-09-13T05:26:25.644Z,87.71
2022-09-13T05:28:52.273Z,87.62
2022-09-13T05:31:18.818Z,87.81
2022-09-13T05:33:46.774Z,87.54
2022-09-13T05:36:13.338Z,87.21
2022-09-13T05:38:40.014Z,86.80
2022-09-13T05:41:06.687Z,86.75
2022-09-13T05:43:35.279Z,86.28
2022-09-13T05:46:10.280Z,85.93
2022-09-13T05:48:36.820Z,86.10
2022-09-13T05:51:12.299Z,85.09
2022-09-13T05:53:42.278Z,85.40
2022-09-13T05:56:13.334Z,85.71
2022-09-13T05:58:44.292Z,85.28
2022-09-13T06:01:11.561Z,85.40
2022-09-13T06:03:38.243Z,84.94
2022-09-13T06:06:05.097Z,84.26
2022-09-13T06:08:32.438Z,83.83
2022-09-13T06:11:06.547Z,83.92
2022-09-13T06:13:33.205Z,83.31
2022-09-13T06:16:00.815Z,82.99
2022-09-13T06:18:27.507Z,83.05
2022-09-13T06:21:01.940Z,82.53
2022-09-13T06:23:29.048Z,82.51
2022-09-13T06:26:09.978Z,82.00
2022-09-13T06:28:37.547Z,82.36
2022-09-13T06:31:11.637Z,80.46
2022-09-13T06:33:39.513Z,78.94
2022-09-13T06:36:10.762Z,78.41
2022-09-13T06:38:37.402Z,78.96
2022-09-13T06:41:08.357Z,79.08
2022-09-13T06:43:34.979Z,78.96
2022-09-13T06:46:15.730Z,78.60
2022-09-13T06:48:43.470Z,78.40
2022-09-13T06:51:14.410Z,78.25
2022-09-13T06:53:41.382Z,78.55
2022-09-13T06:56:13.303Z,78.34
2022-09-13T06:58:40.764Z,77.88
2022-09-13T07:01:12.046Z,77.48
2022-09-13T07:03:39.689Z,76.43
2022-09-13T07:06:17.239Z,76.25
2022-09-13T07:08:47.395Z,75.40
2022-09-13T07:11:15.647Z,75.76
2022-09-13T07:13:42.209Z,75.37
2022-09-13T07:16:10.445Z,74.04
2022-09-13T07:18:37.481Z,73.91
2022-09-13T07:21:06.131Z,73.52
2022-09-13T07:23:33.570Z,73.43
2022-09-13T07:26:05.593Z,73.71
2022-09-13T07:28:37.158Z,73.86
2022-09-13T07:31:08.467Z,74.19
2022-09-13T07:33:35.140Z,74.93
2022-09-13T07:36:06.276Z,75.02
2022-09-13T07:38:35.866Z,75.05
2022-09-13T07:41:03.106Z,74.94
2022-09-13T07:43:29.711Z,72.53
2022-09-13T07:45:58.112Z,72.05
2022-09-13T07:48:25.212Z,70.21
2022-09-13T07:51:07.998Z,67.95
2022-09-13T07:53:35.188Z,65.80
2022-09-13T07:56:03.544Z,63.63
2022-09-13T07:58:30.357Z,61.13
2022-09-13T08:01:21.797Z,61.19
2022-09-13T08:03:52.368Z,61.41
2022-09-13T08:06:18.939Z,60.26
2022-09-13T08:08:45.586Z,60.22
2022-09-13T08:11:16.303Z,60.70
2022-09-13T08:13:42.927Z,59.54
2022-09-13T08:16:09.586Z,60.29
2022-09-13T08:18:36.172Z,59.14
2022-09-13T08:21:02.757Z,57.90
2022-09-13T08:23:29.710Z,58.24
2022-09-13T08:26:00.795Z,58.10
2022-09-13T08:28:27.866Z,58.64
2022-09-13T08:30:54.525Z,58.73
2022-09-13T08:33:21.271Z,58.32
2022-09-13T08:35:52.360Z,58.92
2022-09-13T08:38:19.547Z,58.63
2022-09-13T08:40:50.206Z,58.71
2022-09-13T08:43:47.840Z,59.66
2022-09-13T08:46:26.396Z,59.86
2022-09-13T08:48:55.460Z,58.22
2022-09-13T08:51:31.260Z,57.53
2022-09-13T08:53:58.141Z,57.17
2022-09-13T08:56:49.541Z,58.95
2022-09-13T08:59:37.363Z,59.19
2022-09-13T09:02:17.032Z,57.98
2022-09-13T09:04:58.696Z,58.38
2022-09-13T09:07:27.795Z,59.25
2022-09-13T09:09:56.715Z,58.40
2022-09-13T09:12:41.655Z,58.18
2022-09-13T09:15:25.719Z,57.15
2022-09-13T09:18:10.683Z,57.22
2022-09-13T09:20:40.406Z,57.93
2022-09-13T09:23:21.373Z,55.00
2022-09-13T09:25:49.047Z,55.47
2022-09-13T09:28:17.096Z,55.51
2022-09-13T09:31:01.397Z,57.32
2022-09-13T09:33:54.881Z,56.67
2022-09-13T09:36:43.394Z,56.69
2022-09-13T09:39:16.416Z,55.47
2022-09-13T09:41:44.142Z,55.30
2022-09-13T09:44:14.798Z,53.51
2022-09-13T09:46:41.700Z,54.50
2022-09-13T09:49:36.114Z,53.83
2022-09-13T09:52:06.594Z,54.19
2022-09-13T09:54:34.783Z,52.81
2022-09-13T09:57:01.372Z,53.42
2022-09-13T09:59:32.710Z,53.68
2022-09-13T10:02:00.359Z,53.93
2022-09-13T10:04:27.007Z,54.14
2022-09-13T10:07:15.983Z,52.66
2022-09-13T10:09:48.674Z,51.86
2022-09-13T10:12:15.260Z,54.08
2022-09-13T10:14:43.084Z,52.78
2022-09-13T10:17:26.795Z,51.77
2022-09-13T10:20:20.321Z,53.80
2022-09-13T10:22:47.467Z,51.53
2022-09-13T10:25:27.189Z,52.63
2022-09-13T10:27:57.347Z,51.52
2022-09-13T10:30:38.497Z,51.47
2022-09-13T10:33:05.235Z,51.57
2022-09-13T10:35:31.859Z,51.34
2022-09-13T10:37:58.436Z,52.06
2022-09-13T10:40:34.007Z,51.43
2022-09-13T10:43:03.734Z,53.25
2022-09-13T10:45:31.664Z,52.29
2022-09-13T10:48:03.959Z,49.85
2022-09-13T10:50:35.733Z,51.21
2022-09-13T10:53:03.248Z,50.56
2022-09-13T10:55:37.183Z,50.86
2022-09-13T10:58:07.927Z,51.04
2022-09-13T11:00:54.401Z,48.91
2022-09-13T11:03:33.704Z,52.49
2022-09-13T11:06:13.349Z,51.51
2022-09-13T11:09:05.225Z,51.18
2022-09-13T11:11:37.256Z,50.55
2022-09-13T11:14:18.971Z,52.66
2022-09-13T11:17:23.963Z,52.26
2022-09-13T11:19:56.878Z,51.13
2022-09-13T11:22:26.688Z,52.10
2022-09-13T11:25:09.869Z,51.62
2022-09-13T11:28:17.998Z,50.92
2022-09-13T11:31:13.934Z,51.20
2022-09-13T11:33:49.825Z,52.57
2022-09-13T11:36:29.897Z,52.31
2022-09-13T11:39:21.193Z,53.63
2022-09-13T11:42:09.330Z,54.06
2022-09-13T11:45:08.801Z,53.31
2022-09-13T11:47:48.376Z,53.48
2022-09-13T11:50:40.423Z,53.05
2022-09-13T11:53:44.970Z,53.78
2022-09-13T11:56:14.334Z,53.98
2022-09-13T11:59:22.409Z,53.22
2022-09-13T12:01:58.808Z,52.16
2022-09-13T12:04:33.771Z,51.53
2022-09-13T12:07:03.018Z,52.91
2022-09-13T12:09:32.652Z,49.28
2022-09-13T12:12:07.211Z,48.61
2022-09-13T12:14:52.319Z,50.34
2022-09-13T12:17:35.624Z,52.52
2022-09-13T12:20:02.418Z,50.78
2022-09-13T12:22:32.749Z,49.24
2022-09-13T12:25:03.762Z,47.46
2022-09-13T12:27:42.227Z,47.13
2022-09-13T12:30:18.922Z,49.53
2022-09-13T12:32:46.378Z,49.59
2022-09-13T12:35:20.195Z,49.62
2022-09-13T12:38:05.017Z,47.90
2022-09-13T12:40:45.691Z,48.73
2022-09-13T12:43:27.316Z,48.42
2022-09-13T12:46:24.440Z,48.07
2022-09-13T12:49:31.278Z,47.68
2022-09-13T12:52:10.558Z,48.27
2022-09-13T12:54:49.364Z,48.87
2022-09-13T12:57:28.255Z,49.42
2022-09-13T12:59:57.799Z,49.47
2022-09-13T13:02:36.366Z,48.75
2022-09-13T13:05:27.572Z,49.28
2022-09-13T13:07:56.964Z,49.13
2022-09-13T13:10:34.273Z,50.27
2022-09-13T13:13:24.915Z,49.60
2022-09-13T13:15:51.787Z,49.89
2022-09-13T13:18:28.441Z,49.58
2022-09-13T13:20:54.890Z,50.90
2022-09-13T13:23:21.883Z,51.14
2022-09-13T13:26:01.250Z,51.53
2022-09-13T13:28:43.295Z,49.88
2022-09-13T13:31:11.021Z,50.42
2022-09-13T13:33:48.830Z,49.77
2022-09-13T13:36:33.629Z,49.65
2022-09-13T13:39:03.649Z,50.58
2022-09-13T13:41:33.563Z,52.35
2022-09-13T13:44:00.878Z,53.23
2022-09-13T13:46:29.759Z,51.19
2022-09-13T13:48:56.535Z,51.09
2022-09-13T13:51:24.591Z,50.19
2022-09-13T13:54:03.550Z,49.78
2022-09-13T13:56:35.691Z,50.63
2022-09-13T13:59:31.651Z,51.41
2022-09-13T14:02:02.048Z,52.10
2022-09-13T14:04:57.581Z,51.70
2022-09-13T14:07:38.729Z,51.35
2022-09-13T14:10:28.025Z,51.00
2022-09-13T14:13:05.843Z,50.53
2022-09-13T14:15:38.424Z,49.03
2022-09-13T14:18:19.966Z,49.82
2022-09-13T14:21:18.888Z,50.31
2022-09-13T14:23:45.476Z,50.02
2022-09-13T14:26:12.085Z,50.78
2022-09-13T14:28:39.083Z,50.38
2022-09-13T14:31:05.957Z,50.99
2022-09-13T14:33:35.392Z,51.38
2022-09-13T14:36:07.480Z,51.41
2022-09-13T14:38:35.906Z,52.52
2022-09-13T14:41:17.180Z,51.92
2022-09-13T14:43:44.130Z,51.69
2022-09-13T14:46:20.993Z,51.66
2022-09-13T14:48:55.598Z,52.31
2022-09-13T14:51:28.251Z,52.74
2022-09-13T14:54:09.697Z,51.51
2022-09-13T14:56:40.452Z,52.50
2022-09-13T14:59:13.181Z,52.29
2022-09-13T15:01:39.771Z,53.05
2022-09-13T15:04:07.332Z,53.02
2022-09-13T15:06:38.392Z,53.00
2022-09-13T15:09:11.192Z,53.42
2022-09-13T15:11:40.043Z,53.59
2022-09-13T15:14:26.221Z,54.04
2022-09-13T15:17:08.080Z,52.95
2022-09-13T15:19:51.394Z,52.82
2022-09-13T15:22:23.329Z,52.85
2022-09-13T15:24:54.875Z,53.23
2022-09-13T15:27:22.919Z,53.99
2022-09-13T15:29:50.938Z,54.55
2022-09-13T15:32:43.951Z,53.95
2022-09-13T15:35:43.855Z,55.07
2022-09-13T15:38:30.954Z,54.43
2022-09-13T15:41:03.476Z,53.66
2022-09-13T15:43:31.010Z,53.67
2022-09-13T15:45:58.856Z,54.21
2022-09-13T15:48:30.377Z,54.92
2022-09-13T15:51:11.378Z,54.65
2022-09-13T15:53:42.794Z,55.09
2022-09-13T15:56:12.191Z,55.80
2022-09-13T15:58:38.806Z,55.99
2022-09-13T16:01:05.665Z,55.98
2022-09-13T16:03:32.267Z,56.38
2022-09-13T16:05:59.384Z,56.29
2022-09-13T16:08:25.947Z,56.50
2022-09-13T16:10:52.546Z,56.54
2022-09-13T16:13:19.187Z,56.33
2022-09-13T16:15:45.969Z,56.53
2022-09-13T16:18:13.732Z,57.30
2022-09-13T16:20:40.291Z,56.22
2022-09-13T16:23:07.013Z,56.29
2022-09-13T16:25:34.947Z,56.38
2022-09-13T16:28:02.511Z,56.44
2022-09-13T16:30:30.612Z,57.13
2022-09-13T16:32:57.541Z,58.03
2022-09-13T16:35:28.300Z,57.57
2022-09-13T16:37:54.985Z,57.78
2022-09-13T16:40:21.747Z,58.29
2022-09-13T16:42:48.370Z,58.49
2022-09-13T16:45:15.100Z,59.21
2022-09-13T16:47:42.365Z,58.87
2022-09-13T16:50:09.332Z,58.97
2022-09-13T16:52:36.021Z,59.35
2022-09-13T16:55:02.894Z,58.91
2022-09-13T16:57:29.965Z,59.42
2022-09-13T16:59:58.535Z,60.34
2022-09-13T17:02:26.166Z,60.00
2022-09-13T17:04:53.054Z,60.22
2022-09-13T17:07:19.730Z,59.65
2022-09-13T17:09:46.482Z,59.86
2022-09-13T17:12:13.633Z,60.69
2022-09-13T17:14:42.690Z,60.60
2022-09-13T17:17:09.401Z,60.48
2022-09-13T17:19:36.019Z,60.84
2022-09-13T17:22:03.588Z,61.46
2022-09-13T17:24:33.443Z,61.22
2022-09-13T17:27:00.078Z,61.40
2022-09-13T17:29:30.940Z,61.08
2022-09-13T17:31:58.614Z,62.00
2022-09-13T17:34:25.265Z,62.22
2022-09-13T17:36:52.402Z,62.09
2022-09-13T17:39:19.406Z,62.43
2022-09-13T17:41:46.378Z,62.23
2022-09-13T17:44:12.944Z,62.03
2022-09-13T17:46:39.599Z,62.54
2022-09-13T17:49:06.235Z,62.63
2022-09-13T17:51:33.174Z,62.85
2022-09-13T17:54:01.373Z,62.84
2022-09-13T17:56:30.390Z,62.98
2022-09-13T17:59:18.293Z,62.99
2022-09-13T18:01:49.689Z,63.86
2022-09-13T18:04:17.293Z,64.35
2022-09-13T18:06:45.230Z,63.67
2022-09-13T18:09:12.550Z,63.08
2022-09-13T18:11:39.209Z,63.79
2022-09-13T18:14:06.015Z,63.60
2022-09-13T18:16:32.836Z,63.74
2022-09-13T18:19:00.023Z,63.93
2022-09-13T18:21:27.403Z,64.47
2022-09-13T18:23:58.139Z,65.24
2022-09-13T18:26:25.775Z,64.80
2022-09-13T18:28:57.082Z,65.02
2022-09-13T18:31:24.363Z,63.86
2022-09-13T18:33:55.822Z,64.26
2022-09-13T18:36:22.854Z,65.03
2022-09-13T18:38:49.621Z,64.67
2022-09-13T18:41:20.823Z,64.97
2022-09-13T18:43:52.969Z,65.85
2022-09-13T18:46:23.857Z,64.67
2022-09-13T18:48:52.913Z,64.62
2022-09-13T18:51:21.259Z,64.44
2022-09-13T18:53:47.939Z,64.89
2022-09-13T18:56:16.910Z,65.07
2022-09-13T18:58:43.828Z,65.85
2022-09-13T19:01:13.040Z,66.01
2022-09-13T19:03:40.169Z,66.26
2022-09-13T19:06:13.881Z,66.38
2022-09-13T19:08:41.161Z,66.07
2022-09-13T19:11:19.177Z,66.87
2022-09-13T19:13:54.482Z,66.74
2022-09-13T19:16:21.204Z,66.22
2022-09-13T19:18:51.379Z,66.34
2022-09-13T19:21:22.383Z,65.93
2022-09-13T19:23:59.400Z,66.56
2022-09-13T19:26:28.232Z,66.41
2022-09-13T19:29:04.448Z,67.03
2022-09-13T19:31:31.213Z,66.96
2022-09-13T19:33:58.077Z,66.89
2022-09-13T19:36:27.319Z,66.92
2022-09-13T19:38:57.147Z,67.21
2022-09-13T19:41:25.588Z,66.81
2022-09-13T19:43:56.235Z,67.16
2022-09-13T19:46:24.469Z,67.31
2022-09-13T19:48:51.753Z,67.90
2022-09-13T19:51:20.054Z,68.40
2022-09-13T19:53:56.892Z,67.73
2022-09-13T19:56:27.923Z,68.00
2022-09-13T19:58:54.614Z,68.26
2022-09-13T20:01:23.494Z,68.21
2022-09-13T20:03:52.549Z,68.07
2022-09-13T20:06:19.398Z,68.38
2022-09-13T20:08:46.136Z,68.77
2022-09-13T20:11:14.253Z,68.49
2022-09-13T20:13:40.825Z,68.45
2022-09-13T20:16:24.286Z,69.13
2022-09-13T20:18:51.171Z,68.32
2022-09-13T20:21:18.326Z,69.17
2022-09-13T20:23:45.150Z,69.41
2022-09-13T20:26:22.481Z,69.25
2022-09-13T20:28:50.254Z,69.63
2022-09-13T20:31:16.958Z,68.99
2022-09-13T20:33:43.594Z,69.46
2022-09-13T20:36:11.462Z,69.12
2022-09-13T20:38:38.446Z,69.07
2022-09-13T20:41:12.119Z,69.51
2022-09-13T20:43:38.887Z,69.43
2022-09-13T20:46:06.170Z,69.53
2022-09-13T20:48:33.363Z,70.01
2022-09-13T20:51:08.866Z,69.92
2022-09-13T20:53:35.580Z,70.44
2022-09-13T20:56:06.595Z,70.43
2022-09-13T20:58:33.201Z,70.04
2022-09-13T21:01:11.416Z,70.64
2022-09-13T21:03:38.973Z,70.13
2022-09-13T21:06:06.449Z,70.14
2022-09-13T21:08:42.125Z,69.76
2022-09-13T21:11:13.856Z,69.99
2022-09-13T21:13:56.092Z,70.06
2022-09-13T21:16:24.655Z,70.79
2022-09-13T21:18:51.408Z,70.21
2022-09-13T21:21:22.458Z,69.98
2022-09-13T21:23:49.258Z,70.78
2022-09-13T21:26:18.322Z,70.30
2022-09-13T21:28:45.001Z,70.16
2022-09-13T21:31:16.002Z,69.97
2022-09-13T21:33:45.211Z,70.43
2022-09-13T21:36:12.210Z,70.03
2022-09-13T21:38:39.147Z,69.52
2022-09-13T21:41:07.127Z,69.90
2022-09-13T21:43:34.175Z,69.69
2022-09-13T21:46:05.713Z,69.52
2022-09-13T21:48:33.271Z,69.96
2022-09-13T21:51:17.548Z,70.15
2022-09-13T21:53:44.675Z,69.63
2022-09-13T21:56:13.785Z,69.64
2022-09-13T21:58:40.552Z,70.08
2022-09-13T22:01:13.815Z,70.32
2022-09-13T22:03:42.390Z,70.77
2022-09-13T22:06:09.678Z,69.99
2022-09-13T22:08:37.652Z,70.58
2022-09-13T22:11:05.721Z,70.57
2022-09-13T22:13:33.819Z,70.45
2022-09-13T22:16:08.175Z,71.04
2022-09-13T22:18:34.932Z,70.76
2022-09-13T22:21:11.044Z,70.96
2022-09-13T22:23:37.727Z,71.42
2022-09-13T22:26:08.154Z,71.87
2022-09-13T22:28:35.079Z,71.65
2022-09-13T22:31:12.203Z,71.70
2022-09-13T22:33:39.328Z,71.75
2022-09-13T22:36:07.790Z,71.70
2022-09-13T22:38:34.847Z,71.57
2022-09-13T22:41:03.684Z,72.26
2022-09-13T22:43:30.551Z,72.07
2022-09-13T22:46:05.551Z,72.32
2022-09-13T22:48:32.251Z,72.54
2022-09-13T22:50:58.884Z,72.82
2022-09-13T22:53:26.789Z,73.27
2022-09-13T22:55:53.454Z,73.36
2022-09-13T22:58:20.107Z,73.69
2022-09-13T23:00:46.711Z,73.65
2022-09-13T23:03:13.389Z,73.60
2022-09-13T23:05:40.127Z,74.50
2022-09-13T23:08:07.104Z,74.03
2022-09-13T23:10:33.745Z,73.87
2022-09-13T23:13:00.603Z,73.68
2022-09-13T23:15:27.206Z,73.02
2022-09-13T23:17:53.871Z,72.58
2022-09-13T23:20:20.471Z,72.63
2022-09-13T23:22:47.240Z,72.68
2022-09-13T23:25:13.797Z,72.58
2022-09-13T23:27:40.344Z,72.59
2022-09-13T23:30:07.363Z,72.79
2022-09-13T23:32:33.903Z,72.49
2022-09-13T23:35:00.461Z,72.94
2022-09-13T23:37:27.025Z,73.23
2022-09-13T23:39:53.844Z,73.54
2022-09-13T23:42:20.420Z,74.10
2022-09-13T23:44:46.998Z,73.97
2022-09-13T23:47:13.611Z,74.45
2022-09-13T23:49:44.268Z,74.93
2022-09-13T23:52:10.883Z,74.88
2022-09-13T23:54:37.458Z,74.84
2022-09-13T23:57:04.077Z,75.00
2022-09-13T23:59:30.699Z,75.55
